Time;durP1;ratioP1;P1;durP2;ratioP2;P2;SDS_P1;SDS_P2;PMS_P1;PMS_P2;Temp;Humidity;BMP_temperature;BMP_pressure;BME280_temperature;BME280_humidity;BME280_pressure;Samples;Min_cycle;Max_cycle;Signal;HPM_P1;HPM_P2
2023/04/17 00:00:07;;;;;;;20.33;15.10;;;;;;;;;;5093859;28;20682;-76
2023/04/17 00:02:38;;;;;;;18.37;15.53;;;;;;;;;;5093862;28;20224;-76
2023/04/17 00:05:05;;;;;;;17.63;15.73;;;;;;;;;;5094205;28;20288;-76
2023/04/17 00:07:33;;;;;;;16.40;14.70;;;;;;;;;;5094294;28;20212;-76
2023/04/17 00:09:59;;;;;;;18.27;15.57;;;;;;;;;;5094037;28;20310;-76
2023/04/17 00:12:25;;;;;;;16.77;14.87;;;;;;;;;;5093655;28;20219;-76
2023/04/17 00:14:51;;;;;;;17.17;15.00;;;;;;;;;;5093650;28;20216;-76
2023/04/17 00:17:18;;;;;;;16.87;15.13;;;;;;;;;;5093728;28;20204;-76
2023/04/17 00:19:44;;;;;;;17.47;15.60;;;;;;;;;;5093978;28;20211;-76
2023/04/17 00:22:10;;;;;;;16.17;14.47;;;;;;;;;;5093847;28;20207;-76
2023/04/17 00:24:36;;;;;;;20.80;15.80;;;;;;;;;;5093858;28;20226;-76
2023/04/17 00:27:03;;;;;;;17.97;16.03;;;;;;;;;;5093878;28;20573;-76
2023/04/17 00:29:31;;;;;;;16.57;14.83;;;;;;;;;;5093790;28;20560;-76
2023/04/17 00:31:57;;;;;;;16.93;15.23;;;;;;;;;;5093791;28;20199;-76
2023/04/17 00:34:24;;;;;;;16.97;15.17;;;;;;;;;;5093099;28;20242;-76
2023/04/17 00:36:50;;;;;;;16.43;14.77;;;;;;;;;;5093629;28;20206;-76
2023/04/17 00:39:16;;;;;;;18.10;16.30;;;;;;;;;;5093654;28;20206;-76
2023/04/17 00:41:42;;;;;;;18.47;15.30;;;;;;;;;;5093650;28;20210;-75
2023/04/17 00:44:09;;;;;;;17.00;14.90;;;;;;;;;;5093581;28;20227;-76
2023/04/17 00:46:35;;;;;;;18.57;15.67;;;;;;;;;;5093624;28;20207;-76
2023/04/17 00:49:01;;;;;;;18.07;14.67;;;;;;;;;;5093219;28;20208;-76
2023/04/17 00:51:28;;;;;;;17.50;15.67;;;;;;;;;;5093455;28;20199;-76
2023/04/17 00:53:55;;;;;;;17.67;15.93;;;;;;;;;;5093513;28;20220;-76
2023/04/17 00:56:21;;;;;;;17.17;14.73;;;;;;;;;;5093310;28;20207;-76
2023/04/17 00:58:48;;;;;;;17.90;16.00;;;;;;;;;;5093559;28;20295;-76
2023/04/17 01:01:14;;;;;;;16.57;14.87;;;;;;;;;;5093569;28;20207;-76
2023/04/17 01:03:41;;;;;;;16.77;15.13;;;;;;;;;;5093131;28;20245;-76
2023/04/17 01:06:07;;;;;;;17.50;14.97;;;;;;;;;;5093167;28;20204;-76
2023/04/17 01:08:40;;;;;;;17.30;15.47;;;;;;;;;;5093425;28;20203;-76
2023/04/17 01:11:06;;;;;;;17.00;15.30;;;;;;;;;;5093384;28;20234;-76
2023/04/17 01:13:32;;;;;;;16.73;14.93;;;;;;;;;;5093350;28;20231;-76
2023/04/17 01:15:58;;;;;;;17.67;15.43;;;;;;;;;;5093335;28;20227;-76
2023/04/17 01:18:25;;;;;;;16.27;14.57;;;;;;;;;;5093027;28;20212;-76
2023/04/17 01:20:51;;;;;;;16.23;14.60;;;;;;;;;;5093047;28;20208;-76
2023/04/17 01:23:17;;;;;;;16.83;14.90;;;;;;;;;;5092945;28;20235;-76
2023/04/17 01:25:45;;;;;;;17.03;15.17;;;;;;;;;;5092968;28;20211;-76
2023/04/17 01:28:11;;;;;;;19.83;15.83;;;;;;;;;;5093768;28;20204;-76
2023/04/17 01:30:37;;;;;;;18.23;16.13;;;;;;;;;;5092863;28;20219;-76
2023/04/17 01:33:03;;;;;;;16.70;15.00;;;;;;;;;;5093138;28;20314;-76
2023/04/17 01:35:30;;;;;;;17.37;14.93;;;;;;;;;;5093766;28;20200;-76
2023/04/17 01:37:56;;;;;;;17.40;15.37;;;;;;;;;;5093136;28;20208;-76
2023/04/17 01:40:22;;;;;;;17.50;15.70;;;;;;;;;;5092825;28;20678;-76
2023/04/17 01:42:49;;;;;;;18.17;15.77;;;;;;;;;;5092673;28;20232;-76
2023/04/17 01:45:15;;;;;;;16.60;14.90;;;;;;;;;;5093324;28;20200;-76
2023/04/17 01:47:41;;;;;;;16.53;14.83;;;;;;;;;;5096820;28;20239;-76
2023/04/17 01:50:08;;;;;;;16.67;15.03;;;;;;;;;;5096732;28;20228;-76
2023/04/17 01:52:35;;;;;;;16.87;15.17;;;;;;;;;;5096284;28;20726;-76
2023/04/17 01:55:02;;;;;;;15.97;14.47;;;;;;;;;;5096407;28;20667;-76
2023/04/17 01:57:29;;;;;;;16.97;15.23;;;;;;;;;;5096294;28;20218;-76
2023/04/17 01:59:55;;;;;;;16.27;14.53;;;;;;;;;;5096542;28;20204;-76
2023/04/17 02:02:22;;;;;;;17.60;15.47;;;;;;;;;;5096489;28;20231;-76
2023/04/17 02:04:48;;;;;;;16.40;14.37;;;;;;;;;;5096423;28;20204;-76
2023/04/17 02:07:15;;;;;;;17.17;15.37;;;;;;;;;;5097013;28;20208;-76
2023/04/17 02:09:41;;;;;;;17.27;15.40;;;;;;;;;;5096348;28;20219;-76
2023/04/17 02:12:08;;;;;;;16.77;15.07;;;;;;;;;;5096232;28;20210;-76
2023/04/17 02:14:34;;;;;;;18.17;16.23;;;;;;;;;;5096191;28;20208;-76
2023/04/17 02:17:00;;;;;;;17.27;15.47;;;;;;;;;;5096177;28;20211;-76
2023/04/17 02:19:26;;;;;;;18.37;16.37;;;;;;;;;;5095811;28;20211;-76
2023/04/17 02:21:52;;;;;;;17.70;15.80;;;;;;;;;;5096702;28;20219;-76
2023/04/17 02:24:19;;;;;;;18.07;16.17;;;;;;;;;;5096024;28;20235;-76
2023/04/17 02:26:45;;;;;;;18.33;16.33;;;;;;;;;;5096021;28;20203;-76
2023/04/17 02:29:11;;;;;;;17.87;15.47;;;;;;;;;;5096032;28;20299;-76
2023/04/17 02:31:39;;;;;;;17.93;16.13;;;;;;;;;;5095867;28;20228;-76
2023/04/17 02:34:05;;;;;;;18.63;16.40;;;;;;;;;;5095754;28;20231;-76
2023/04/17 02:36:32;;;;;;;17.87;16.00;;;;;;;;;;5095491;28;20548;-76
2023/04/17 02:38:58;;;;;;;17.90;15.93;;;;;;;;;;5095801;28;20574;-76
2023/04/17 02:41:24;;;;;;;19.70;16.57;;;;;;;;;;5095432;28;20551;-76
2023/04/17 02:43:50;;;;;;;19.37;17.30;;;;;;;;;;5095674;28;20227;-76
2023/04/17 02:46:17;;;;;;;17.87;16.03;;;;;;;;;;5095634;28;20200;-76
2023/04/17 02:48:43;;;;;;;18.30;16.30;;;;;;;;;;5096378;28;20207;-76
2023/04/17 02:51:09;;;;;;;18.67;15.83;;;;;;;;;;5095474;28;20246;-75
2023/04/17 02:53:35;;;;;;;17.20;15.40;;;;;;;;;;5095987;28;20323;-75
2023/04/17 02:56:01;;;;;;;17.80;15.90;;;;;;;;;;5096324;28;20258;-76
2023/04/17 02:58:28;;;;;;;19.20;16.30;;;;;;;;;;5094827;28;20215;-76
2023/04/17 03:00:59;;;;;;;17.80;16.00;;;;;;;;;;5095267;28;20208;-76
2023/04/17 03:03:29;;;;;;;19.30;16.63;;;;;;;;;;5094842;28;20596;-76
2023/04/17 03:05:56;;;;;;;19.77;16.80;;;;;;;;;;5095968;28;20208;-76
2023/04/17 03:08:22;;;;;;;19.83;16.40;;;;;;;;;;5094867;28;20208;-76
2023/04/17 03:10:48;;;;;;;20.77;17.00;;;;;;;;;;5094721;28;20231;-76
2023/04/17 03:13:14;;;;;;;20.40;17.67;;;;;;;;;;5094996;28;20238;-76
2023/04/17 03:15:41;;;;;;;19.20;16.93;;;;;;;;;;5095052;28;20204;-76
2023/04/17 03:18:07;;;;;;;20.83;17.27;;;;;;;;;;5094762;28;20645;-76
2023/04/17 03:20:33;;;;;;;20.00;17.60;;;;;;;;;;5094909;28;20208;-76
2023/04/17 03:23:00;;;;;;;19.30;17.27;;;;;;;;;;5094437;28;20223;-76
2023/04/17 03:25:26;;;;;;;18.50;16.10;;;;;;;;;;5094470;28;20208;-76
2023/04/17 03:27:52;;;;;;;17.97;15.80;;;;;;;;;;5094755;28;20574;-76
2023/04/17 03:30:19;;;;;;;18.70;16.47;;;;;;;;;;5094091;28;20714;-76
2023/04/17 03:32:45;;;;;;;18.90;16.53;;;;;;;;;;5094437;28;20224;-75
2023/04/17 03:35:11;;;;;;;18.90;16.20;;;;;;;;;;5094354;28;20210;-76
2023/04/17 03:37:37;;;;;;;18.10;16.27;;;;;;;;;;5094275;28;20222;-76
2023/04/17 03:40:05;;;;;;;18.33;16.43;;;;;;;;;;5094369;28;20203;-76
2023/04/17 03:42:31;;;;;;;18.57;16.47;;;;;;;;;;5094259;28;20228;-76
2023/04/17 03:44:58;;;;;;;18.83;16.93;;;;;;;;;;5093986;28;20204;-76
2023/04/17 03:47:24;;;;;;;18.27;16.33;;;;;;;;;;5093927;28;20708;-76
2023/04/17 03:49:50;;;;;;;17.67;15.87;;;;;;;;;;5093922;28;20208;-75
2023/04/17 03:52:16;;;;;;;18.17;16.30;;;;;;;;;;5093794;28;20208;-76
2023/04/17 03:54:43;;;;;;;20.37;16.73;;;;;;;;;;5094178;28;20203;-76
2023/04/17 03:57:09;;;;;;;18.53;16.30;;;;;;;;;;5094130;28;20231;-76
2023/04/17 03:59:35;;;;;;;22.30;16.23;;;;;;;;;;5093573;28;20689;-76
2023/04/17 04:02:02;;;;;;;18.63;16.47;;;;;;;;;;5093925;28;20328;-76
2023/04/17 04:04:28;;;;;;;17.57;15.77;;;;;;;;;;5093406;28;20212;-76
2023/04/17 04:06:56;;;;;;;18.97;17.03;;;;;;;;;;5093969;28;20227;-76
2023/04/17 04:09:23;;;;;;;19.53;17.40;;;;;;;;;;5093215;28;20204;-76
2023/04/17 04:11:49;;;;;;;19.77;17.67;;;;;;;;;;5094119;28;20228;-76
2023/04/17 04:14:15;;;;;;;19.30;17.23;;;;;;;;;;5093775;28;20227;-76
2023/04/17 04:16:42;;;;;;;19.90;17.80;;;;;;;;;;5093849;28;20242;-76
2023/04/17 04:19:08;;;;;;;17.87;15.97;;;;;;;;;;5093344;28;20675;-76
2023/04/17 04:21:34;;;;;;;18.50;16.60;;;;;;;;;;5093489;28;20208;-75
2023/04/17 04:24:01;;;;;;;22.13;18.50;;;;;;;;;;5093256;28;20228;-76
2023/04/17 04:26:27;;;;;;;18.93;16.87;;;;;;;;;;5093651;28;20233;-76
2023/04/17 04:28:55;;;;;;;18.43;16.43;;;;;;;;;;5093501;28;20211;-75
2023/04/17 04:31:21;;;;;;;20.77;17.90;;;;;;;;;;5093465;28;20224;-76
2023/04/17 04:33:53;;;;;;;19.27;17.20;;;;;;;;;;5093435;28;20220;-76
2023/04/17 04:36:20;;;;;;;19.07;17.10;;;;;;;;;;5093118;28;20207;-76
2023/04/17 04:38:48;;;;;;;19.30;17.27;;;;;;;;;;5093114;28;20207;-76
2023/04/17 04:41:16;;;;;;;19.93;17.50;;;;;;;;;;5093221;28;20208;-76
2023/04/17 04:43:42;;;;;;;17.43;15.60;;;;;;;;;;5092800;28;20596;-76
2023/04/17 04:46:09;;;;;;;19.17;16.57;;;;;;;;;;5093146;28;20207;-76
2023/04/17 04:48:35;;;;;;;21.17;17.70;;;;;;;;;;5093291;28;20211;-75
2023/04/17 04:51:01;;;;;;;20.07;17.23;;;;;;;;;;5093124;28;20224;-76
2023/04/17 04:53:28;;;;;;;19.43;16.77;;;;;;;;;;5092550;28;20228;-75
2023/04/17 04:55:54;;;;;;;20.53;18.27;;;;;;;;;;5092922;28;20261;-76
2023/04/17 04:58:21;;;;;;;19.50;17.23;;;;;;;;;;5092981;28;20203;-76
2023/04/17 05:00:47;;;;;;;19.90;17.43;;;;;;;;;;5093107;28;20204;-76
2023/04/17 05:03:13;;;;;;;18.33;15.60;;;;;;;;;;5092999;28;20220;-76
2023/04/17 05:05:40;;;;;;;18.47;15.97;;;;;;;;;;5092812;28;20207;-76
2023/04/17 05:08:06;;;;;;;18.73;16.60;;;;;;;;;;5092911;28;20203;-74
2023/04/17 05:10:33;;;;;;;19.63;17.57;;;;;;;;;;5093060;28;20319;-76
2023/04/17 05:12:59;;;;;;;19.50;17.33;;;;;;;;;;5093043;28;20250;-76
2023/04/17 05:15:26;;;;;;;18.47;16.37;;;;;;;;;;5093015;28;20200;-76
2023/04/17 05:17:52;;;;;;;19.20;17.13;;;;;;;;;;5092165;28;20216;-76
2023/04/17 05:20:19;;;;;;;16.70;15.00;;;;;;;;;;5093337;28;20218;-74
2023/04/17 05:22:45;;;;;;;17.90;16.07;;;;;;;;;;5096504;28;20231;-75
2023/04/17 05:25:11;;;;;;;18.70;16.37;;;;;;;;;;5096534;28;20215;-76
2023/04/17 05:27:38;;;;;;;18.57;16.10;;;;;;;;;;5096158;28;20584;-76
2023/04/17 05:30:04;;;;;;;18.57;15.90;;;;;;;;;;5097125;28;20576;-76
2023/04/17 05:32:30;;;;;;;17.53;15.73;;;;;;;;;;5096477;28;20224;-76
2023/04/17 05:34:57;;;;;;;19.77;16.90;;;;;;;;;;5096090;28;20214;-76
2023/04/17 05:37:23;;;;;;;17.70;15.67;;;;;;;;;;5096365;28;20227;-76
2023/04/17 05:39:49;;;;;;;17.77;15.87;;;;;;;;;;5096125;28;20200;-76
2023/04/17 05:42:16;;;;;;;18.70;16.17;;;;;;;;;;5095842;28;20261;-76
2023/04/17 05:44:42;;;;;;;19.27;15.90;;;;;;;;;;5096133;28;20204;-76
2023/04/17 05:47:08;;;;;;;17.73;15.60;;;;;;;;;;5095959;28;20208;-76
2023/04/17 05:49:35;;;;;;;17.80;15.90;;;;;;;;;;5096565;28;20212;-76
2023/04/17 05:52:01;;;;;;;17.20;15.40;;;;;;;;;;5096312;28;20220;-76
2023/04/17 05:54:29;;;;;;;17.57;15.67;;;;;;;;;;5096245;28;20204;-76
2023/04/17 05:56:55;;;;;;;18.50;16.30;;;;;;;;;;5096210;28;20587;-76
2023/04/17 05:59:21;;;;;;;17.67;15.63;;;;;;;;;;5097377;28;20214;-76
2023/04/17 06:01:48;;;;;;;17.90;15.97;;;;;;;;;;5095955;28;20686;-76
2023/04/17 06:04:14;;;;;;;17.80;15.90;;;;;;;;;;5095883;28;20234;-76
2023/04/17 06:06:40;;;;;;;15.83;14.13;;;;;;;;;;5096006;28;20204;-76
2023/04/17 06:09:08;;;;;;;17.13;15.33;;;;;;;;;;5095762;28;20212;-76
2023/04/17 06:11:34;;;;;;;18.43;16.53;;;;;;;;;;5095922;28;20226;-76
2023/04/17 06:14:00;;;;;;;17.70;15.83;;;;;;;;;;5095412;28;20224;-76
2023/04/17 06:16:27;;;;;;;21.43;16.10;;;;;;;;;;5095541;28;20306;-76
2023/04/17 06:18:53;;;;;;;19.80;17.13;;;;;;;;;;5095247;28;20211;-76
2023/04/17 06:21:19;;;;;;;20.70;16.67;;;;;;;;;;5095189;28;20203;-76
2023/04/17 06:23:46;;;;;;;18.73;16.67;;;;;;;;;;5095243;28;20224;-76
2023/04/17 06:26:12;;;;;;;19.07;17.07;;;;;;;;;;5095615;28;20203;-75
2023/04/17 06:28:38;;;;;;;19.93;17.33;;;;;;;;;;5095605;28;20211;-76
2023/04/17 06:31:04;;;;;;;18.87;16.67;;;;;;;;;;5095302;28;20232;-76
2023/04/17 06:33:31;;;;;;;20.83;17.20;;;;;;;;;;5094431;28;20240;-76
2023/04/17 06:35:57;;;;;;;20.43;17.53;;;;;;;;;;5095108;28;20205;-76
2023/04/17 06:38:23;;;;;;;19.37;17.07;;;;;;;;;;5095319;28;20225;-76
2023/04/17 06:40:50;;;;;;;18.87;16.77;;;;;;;;;;5094661;28;20204;-76
2023/04/17 06:43:16;;;;;;;18.30;15.20;;;;;;;;;;5094978;28;20235;-76
2023/04/17 06:45:42;;;;;;;18.63;16.63;;;;;;;;;;5094256;28;20204;-76
2023/04/17 06:48:09;;;;;;;20.37;16.40;;;;;;;;;;5092950;28;20669;-76
2023/04/17 06:50:35;;;;;;;20.17;16.10;;;;;;;;;;5092977;28;20215;-76
2023/04/17 06:53:01;;;;;;;19.80;15.53;;;;;;;;;;5092710;28;20227;-76
2023/04/17 06:55:28;;;;;;;18.47;16.50;;;;;;;;;;5092825;28;20230;-75
2023/04/17 06:57:54;;;;;;;20.10;16.90;;;;;;;;;;5092724;28;20238;-76
2023/04/17 07:00:21;;;;;;;19.30;16.40;;;;;;;;;;5092898;28;20253;-76
2023/04/17 07:02:47;;;;;;;20.40;16.73;;;;;;;;;;5094271;28;20224;-76
2023/04/17 07:05:13;;;;;;;18.97;16.23;;;;;;;;;;5094982;28;20211;-76
2023/04/17 07:07:40;;;;;;;20.63;17.10;;;;;;;;;;5094900;28;20199;-76
2023/04/17 07:10:07;;;;;;;20.63;17.20;;;;;;;;;;5095486;28;20203;-76
2023/04/17 07:12:33;;;;;;;18.57;16.53;;;;;;;;;;5094613;28;20228;-76
2023/04/17 07:14:59;;;;;;;20.77;16.87;;;;;;;;;;5094723;28;20204;-76
2023/04/17 07:17:26;;;;;;;21.00;16.17;;;;;;;;;;5094362;28;20208;-76
2023/04/17 07:19:52;;;;;;;17.80;15.50;;;;;;;;;;5094878;28;20257;-76
2023/04/17 07:22:19;;;;;;;19.53;16.27;;;;;;;;;;5094539;28;20210;-76
2023/04/17 07:24:45;;;;;;;21.07;16.00;;;;;;;;;;5094193;28;20208;-76
2023/04/17 07:27:12;;;;;;;18.03;15.33;;;;;;;;;;5094039;28;20219;-76
2023/04/17 07:29:38;;;;;;;16.20;14.60;;;;;;;;;;5093958;28;20203;-76
2023/04/17 07:32:05;;;;;;;17.00;15.20;;;;;;;;;;5093924;28;20698;-76
2023/04/17 07:34:33;;;;;;;17.03;14.87;;;;;;;;;;5094494;28;20207;-76
2023/04/17 07:36:59;;;;;;;18.67;16.00;;;;;;;;;;5094299;28;20206;-76
2023/04/17 07:39:29;;;;;;;18.03;15.53;;;;;;;;;;5094597;28;20203;-76
2023/04/17 07:41:55;;;;;;;15.10;13.50;;;;;;;;;;5093710;28;20578;-75
2023/04/17 07:44:21;;;;;;;17.73;13.40;;;;;;;;;;5093978;28;20262;-76
2023/04/17 07:46:48;;;;;;;16.47;14.77;;;;;;;;;;5093917;28;20217;-75
2023/04/17 07:49:14;;;;;;;15.50;13.90;;;;;;;;;;5094104;28;20214;-75
2023/04/17 07:51:41;;;;;;;15.33;13.77;;;;;;;;;;5094096;28;20231;-76
2023/04/17 07:54:07;;;;;;;18.10;13.93;;;;;;;;;;5094195;28;20276;-75
2023/04/17 07:56:35;;;;;;;16.37;13.90;;;;;;;;;;5094154;28;20208;-78
2023/04/17 07:59:02;;;;;;;15.33;13.70;;;;;;;;;;5094611;28;20204;-77
2023/04/17 08:01:28;;;;;;;14.90;12.13;;;;;;;;;;5094092;28;20253;-76
2023/04/17 08:03:54;;;;;;;14.23;12.73;;;;;;;;;;5094090;28;20230;-76
2023/04/17 08:06:21;;;;;;;14.90;12.30;;;;;;;;;;5093937;28;20210;-76
2023/04/17 08:08:47;;;;;;;15.00;12.00;;;;;;;;;;5093878;28;20204;-74
2023/04/17 08:11:14;;;;;;;12.53;11.33;;;;;;;;;;5093788;28;20220;-74
2023/04/17 08:13:40;;;;;;;12.77;11.47;;;;;;;;;;5093612;28;20262;-77
2023/04/17 08:16:07;;;;;;;13.27;11.87;;;;;;;;;;5093954;28;20230;-77
2023/04/17 08:18:36;;;;;;;15.57;12.40;;;;;;;;;;5093405;28;20211;-77
2023/04/17 08:21:02;;;;;;;13.57;12.13;;;;;;;;;;5093784;28;20204;-77
2023/04/17 08:23:29;;;;;;;14.50;12.47;;;;;;;;;;5093201;28;20249;-77
2023/04/17 08:25:55;;;;;;;12.30;11.00;;;;;;;;;;5093405;28;20667;-77
2023/04/17 08:28:21;;;;;;;13.03;11.77;;;;;;;;;;5093495;28;20563;-77
2023/04/17 08:30:48;;;;;;;11.63;10.43;;;;;;;;;;5093544;28;20656;-75
2023/04/17 08:33:16;;;;;;;10.97;9.93;;;;;;;;;;5092962;28;20726;-75
2023/04/17 08:35:43;;;;;;;12.37;10.67;;;;;;;;;;5093346;28;20208;-75
2023/04/17 08:38:12;;;;;;;10.73;9.70;;;;;;;;;;5093724;28;20210;-75
2023/04/17 08:40:41;;;;;;;10.37;9.27;;;;;;;;;;5093087;28;20206;-75
2023/04/17 08:43:13;;;;;;;10.87;9.73;;;;;;;;;;5093311;28;20224;-77
2023/04/17 08:45:40;;;;;;;10.77;9.77;;;;;;;;;;5093294;28;20198;-75
2023/04/17 08:48:06;;;;;;;9.80;8.90;;;;;;;;;;5093866;28;20211;-75
2023/04/17 08:50:32;;;;;;;9.90;8.87;;;;;;;;;;5093809;28;20207;-77
2023/04/17 08:52:58;;;;;;;9.47;8.40;;;;;;;;;;5093165;28;20227;-78
2023/04/17 08:55:27;;;;;;;9.90;8.90;;;;;;;;;;5094180;28;20210;-75
2023/04/17 08:58:02;;;;;;;9.73;8.83;;;;;;;;;;5097179;28;20237;-75
2023/04/17 09:00:30;;;;;;;9.63;8.63;;;;;;;;;;5097135;28;20595;-75
2023/04/17 09:02:57;;;;;;;9.70;8.63;;;;;;;;;;5097204;28;20228;-75
2023/04/17 09:05:24;;;;;;;10.13;9.10;;;;;;;;;;5097200;28;20203;-75
2023/04/17 09:08:05;;;;;;;11.23;8.90;;;;;;;;;;5097069;28;20690;-75
2023/04/17 09:10:35;;;;;;;9.50;8.60;;;;;;;;;;5097107;28;20187;-75
2023/04/17 09:13:01;;;;;;;9.37;8.17;;;;;;;;;;5096852;28;20766;-75
2023/04/17 09:15:28;;;;;;;9.30;8.50;;;;;;;;;;5097103;28;20268;-75
2023/04/17 09:17:54;;;;;;;8.23;7.43;;;;;;;;;;5096646;28;20207;-75
2023/04/17 09:20:21;;;;;;;8.60;7.77;;;;;;;;;;5096996;28;20299;-75
2023/04/17 09:22:47;;;;;;;11.40;7.60;;;;;;;;;;5097002;28;20223;-74
2023/04/17 09:25:20;;;;;;;7.90;6.83;;;;;;;;;;5097014;28;20200;-75
2023/04/17 09:27:46;;;;;;;7.77;7.07;;;;;;;;;;5096761;28;20199;-75
2023/04/17 09:30:13;;;;;;;10.17;7.03;;;;;;;;;;5096788;28;20290;-75
2023/04/17 09:32:40;;;;;;;8.50;7.33;;;;;;;;;;5096803;28;20223;-75
2023/04/17 09:35:06;;;;;;;7.90;6.50;;;;;;;;;;5096710;28;20211;-75
2023/04/17 09:37:52;;;;;;;8.37;6.80;;;;;;;;;;5096721;28;20231;-75
2023/04/17 09:40:19;;;;;;;7.70;6.93;;;;;;;;;;5096743;28;20237;-78
2023/04/17 09:43:02;;;;;;;7.00;6.40;;;;;;;;;;5096699;28;20246;-78
2023/04/17 09:45:34;;;;;;;6.70;6.10;;;;;;;;;;5096839;28;20253;-77
2023/04/17 09:48:00;;;;;;;6.70;6.10;;;;;;;;;;5096658;28;20191;-78
2023/04/17 09:50:27;;;;;;;6.57;5.97;;;;;;;;;;5096357;28;20204;-78
2023/04/17 09:52:56;;;;;;;6.90;6.20;;;;;;;;;;5096440;28;20334;-75
2023/04/17 09:55:23;;;;;;;7.00;6.30;;;;;;;;;;5097138;28;20210;-75
2023/04/17 09:58:01;;;;;;;6.47;5.80;;;;;;;;;;5096362;28;20204;-78
2023/04/17 10:00:28;;;;;;;6.57;5.97;;;;;;;;;;5096101;28;20189;-77
2023/04/17 10:02:55;;;;;;;6.17;5.57;;;;;;;;;;5095994;28;20221;-76
2023/04/17 10:05:22;;;;;;;6.93;6.33;;;;;;;;;;5096120;28;20204;-75
2023/04/17 10:07:48;;;;;;;6.03;5.53;;;;;;;;;;5094424;28;20683;-75
2023/04/17 10:10:24;;;;;;;6.53;5.93;;;;;;;;;;5096041;28;20203;-75
2023/04/17 10:12:51;;;;;;;8.60;5.97;;;;;;;;;;5095885;28;20238;-76
2023/04/17 10:15:18;;;;;;;6.47;5.87;;;;;;;;;;5095851;28;20201;-75
2023/04/17 10:17:45;;;;;;;5.77;5.27;;;;;;;;;;5095679;28;20222;-75
2023/04/17 10:20:16;;;;;;;6.30;5.70;;;;;;;;;;5096349;28;20302;-75
2023/04/17 10:22:42;;;;;;;6.70;6.00;;;;;;;;;;5095086;28;20225;-75
2023/04/17 10:25:11;;;;;;;6.30;5.70;;;;;;;;;;5095572;28;20208;-75
2023/04/17 10:27:39;;;;;;;5.10;4.60;;;;;;;;;;5095312;28;20638;-75
2023/04/17 10:30:06;;;;;;;5.77;5.17;;;;;;;;;;5095467;28;20208;-75
2023/04/17 10:32:33;;;;;;;5.80;4.87;;;;;;;;;;5095349;28;20232;-75
2023/04/17 10:35:00;;;;;;;5.53;4.97;;;;;;;;;;5095202;28;20209;-75
2023/04/17 10:37:45;;;;;;;5.20;4.70;;;;;;;;;;5095376;28;20380;-75
2023/04/17 10:40:11;;;;;;;5.43;4.70;;;;;;;;;;5095018;28;20212;-75
2023/04/17 10:42:38;;;;;;;5.13;4.30;;;;;;;;;;5094986;28;20272;-75
2023/04/17 10:45:17;;;;;;;4.40;4.00;;;;;;;;;;5095443;28;20215;-78
2023/04/17 10:47:44;;;;;;;3.97;3.67;;;;;;;;;;5095547;28;20197;-75
2023/04/17 10:50:10;;;;;;;4.83;4.00;;;;;;;;;;5095188;28;20207;-74
2023/04/17 10:52:38;;;;;;;4.40;4.00;;;;;;;;;;5095037;28;20315;-75
2023/04/17 10:55:05;;;;;;;4.00;3.70;;;;;;;;;;5094580;28;20658;-75
2023/04/17 10:57:50;;;;;;;3.27;3.07;;;;;;;;;;5095039;28;20208;-75
2023/04/17 11:00:17;;;;;;;4.47;4.07;;;;;;;;;;5094760;28;20203;-75
2023/04/17 11:02:48;;;;;;;4.63;4.13;;;;;;;;;;5094909;28;20228;-76
2023/04/17 11:05:15;;;;;;;4.27;3.87;;;;;;;;;;5094279;28;20647;-76
2023/04/17 11:07:43;;;;;;;3.97;3.67;;;;;;;;;;5094984;28;20232;-76
2023/04/17 11:10:09;;;;;;;4.77;3.70;;;;;;;;;;5094915;28;20200;-75
2023/04/17 11:12:38;;;;;;;3.93;3.63;;;;;;;;;;5094437;28;20644;-75
2023/04/17 11:15:05;;;;;;;4.40;4.00;;;;;;;;;;5094764;28;20291;-76
2023/04/17 11:17:31;;;;;;;4.53;4.13;;;;;;;;;;5094857;28;20237;-76
2023/04/17 11:19:57;;;;;;;4.20;3.90;;;;;;;;;;5094317;28;20221;-76
2023/04/17 11:22:24;;;;;;;4.87;4.00;;;;;;;;;;5094424;28;20228;-75
2023/04/17 11:24:50;;;;;;;5.37;3.73;;;;;;;;;;5094700;28;20204;-76
2023/04/17 11:27:17;;;;;;;4.33;3.93;;;;;;;;;;5094274;28;20608;-78
2023/04/17 11:29:44;;;;;;;4.90;4.07;;;;;;;;;;5094402;28;20199;-77
2023/04/17 11:32:11;;;;;;;4.60;4.20;;;;;;;;;;5094157;28;20720;-76
2023/04/17 11:34:38;;;;;;;4.37;3.97;;;;;;;;;;5094033;28;20693;-76
2023/04/17 11:37:04;;;;;;;4.53;4.13;;;;;;;;;;5094436;28;20208;-77
2023/04/17 11:39:32;;;;;;;4.63;4.23;;;;;;;;;;5094386;28;20226;-76
2023/04/17 11:41:58;;;;;;;5.03;4.53;;;;;;;;;;5094288;28;20206;-77
2023/04/17 11:44:25;;;;;;;5.27;4.67;;;;;;;;;;5094159;28;20224;-76
2023/04/17 11:46:52;;;;;;;6.00;5.17;;;;;;;;;;5094118;28;20233;-76
2023/04/17 11:49:26;;;;;;;8.30;5.33;;;;;;;;;;5094055;28;20257;-76
2023/04/17 11:51:52;;;;;;;6.20;5.60;;;;;;;;;;5094163;28;20301;-77
2023/04/17 11:54:24;;;;;;;5.20;4.80;;;;;;;;;;5093896;28;20227;-76
2023/04/17 11:56:57;;;;;;;4.50;4.10;;;;;;;;;;5093734;28;20218;-76
2023/04/17 11:59:33;;;;;;;4.87;4.47;;;;;;;;;;5093890;28;20237;-76
2023/04/17 12:02:00;;;;;;;6.00;5.40;;;;;;;;;;5093853;28;20210;-76
2023/04/17 12:04:27;;;;;;;5.47;4.97;;;;;;;;;;5093907;28;20205;-77
2023/04/17 12:06:54;;;;;;;6.63;4.80;;;;;;;;;;5093408;28;20210;-76
2023/04/17 12:09:23;;;;;;;5.53;4.87;;;;;;;;;;5093359;28;20210;-76
2023/04/17 12:11:49;;;;;;;5.43;5.00;;;;;;;;;;5093750;28;20659;-76
2023/04/17 12:14:15;;;;;;;5.13;4.63;;;;;;;;;;5093510;28;20284;-77
2023/04/17 12:16:42;;;;;;;5.03;4.63;;;;;;;;;;5092583;28;20426;-76
2023/04/17 12:19:09;;;;;;;4.97;4.50;;;;;;;;;;5093332;28;20218;-77
2023/04/17 12:21:35;;;;;;;5.10;4.70;;;;;;;;;;5094282;28;20622;-76
2023/04/17 12:24:01;;;;;;;4.60;4.20;;;;;;;;;;5093616;28;20228;-77
2023/04/17 12:26:28;;;;;;;5.50;4.20;;;;;;;;;;5093632;28;20207;-77
2023/04/17 12:28:56;;;;;;;5.23;4.10;;;;;;;;;;5093704;28;20253;-77
2023/04/17 12:31:22;;;;;;;5.40;4.90;;;;;;;;;;5092899;28;20206;-77
2023/04/17 12:33:48;;;;;;;5.43;4.80;;;;;;;;;;5092956;28;20233;-77
2023/04/17 12:36:15;;;;;;;4.60;4.20;;;;;;;;;;5093342;28;20222;-77
2023/04/17 12:38:42;;;;;;;4.30;3.90;;;;;;;;;;5092924;28;20209;-78
2023/04/17 12:41:08;;;;;;;4.53;4.13;;;;;;;;;;5093279;28;20206;-77
2023/04/17 12:43:34;;;;;;;4.60;4.20;;;;;;;;;;5092827;28;20219;-77
2023/04/17 12:46:01;;;;;;;4.87;4.47;;;;;;;;;;5092785;28;20212;-77
2023/04/17 12:48:28;;;;;;;6.17;4.13;;;;;;;;;;5093160;28;20206;-76
2023/04/17 12:50:54;;;;;;;4.20;3.80;;;;;;;;;;5093362;28;20211;-77
2023/04/17 12:53:20;;;;;;;4.23;3.93;;;;;;;;;;5093079;28;20323;-76
2023/04/17 12:55:46;;;;;;;5.67;3.90;;;;;;;;;;5093388;28;20214;-76
2023/04/17 12:58:13;;;;;;;4.00;3.70;;;;;;;;;;5093214;28;20204;-76
2023/04/17 13:00:42;;;;;;;3.77;3.47;;;;;;;;;;5092576;28;20208;-76
2023/04/17 13:03:08;;;;;;;4.50;4.10;;;;;;;;;;5092383;28;20231;-75
2023/04/17 13:05:34;;;;;;;4.63;4.20;;;;;;;;;;5093086;28;20227;-77
2023/04/17 13:08:01;;;;;;;4.93;4.33;;;;;;;;;;5093144;28;20565;-76
2023/04/17 13:10:27;;;;;;;4.80;4.40;;;;;;;;;;5093161;28;20313;-76
2023/04/17 13:12:54;;;;;;;4.63;3.73;;;;;;;;;;5093032;28;20224;-77
2023/04/17 13:15:20;;;;;;;5.27;4.23;;;;;;;;;;5092652;28;20240;-77
2023/04/17 13:17:47;;;;;;;4.33;4.00;;;;;;;;;;5092811;28;20217;-76
2023/04/17 13:20:13;;;;;;;4.73;4.27;;;;;;;;;;5093015;28;20211;-77
2023/04/17 13:22:39;;;;;;;4.67;4.27;;;;;;;;;;5092802;28;20224;-76
2023/04/17 13:25:06;;;;;;;5.87;4.50;;;;;;;;;;5093426;28;20207;-76
2023/04/17 13:27:32;;;;;;;4.73;4.13;;;;;;;;;;5092730;28;20200;-76
2023/04/17 13:29:59;;;;;;;4.67;4.13;;;;;;;;;;5092207;28;20663;-77
2023/04/17 13:32:25;;;;;;;5.03;4.20;;;;;;;;;;5092284;28;20725;-77
2023/04/17 13:34:51;;;;;;;4.03;3.63;;;;;;;;;;5092640;28;20208;-77
2023/04/17 13:37:18;;;;;;;4.60;4.20;;;;;;;;;;5092402;28;20573;-77
2023/04/17 13:39:44;;;;;;;4.87;4.47;;;;;;;;;;5092533;28;20201;-76
2023/04/17 13:42:10;;;;;;;4.13;3.77;;;;;;;;;;5094406;28;20228;-76
2023/04/17 13:44:36;;;;;;;5.47;4.70;;;;;;;;;;5096615;28;20200;-77
2023/04/17 13:47:03;;;;;;;4.93;4.53;;;;;;;;;;5096464;28;20205;-76
2023/04/17 13:49:29;;;;;;;6.33;4.23;;;;;;;;;;5097056;28;20254;-77
2023/04/17 13:51:55;;;;;;;4.30;3.90;;;;;;;;;;5096556;28;20208;-77
2023/04/17 13:54:22;;;;;;;4.00;3.70;;;;;;;;;;5096785;28;20241;-77
2023/04/17 13:56:48;;;;;;;4.47;4.07;;;;;;;;;;5096414;28;20209;-77
2023/04/17 13:59:14;;;;;;;4.10;3.73;;;;;;;;;;5096408;28;20215;-77
2023/04/17 14:01:41;;;;;;;4.30;3.93;;;;;;;;;;5096202;28;20202;-77
2023/04/17 14:04:08;;;;;;;4.43;4.03;;;;;;;;;;5095876;28;20238;-77
2023/04/17 14:06:34;;;;;;;4.83;3.90;;;;;;;;;;5095935;28;20209;-76
2023/04/17 14:09:01;;;;;;;3.97;3.67;;;;;;;;;;5095924;28;20219;-77
2023/04/17 14:11:27;;;;;;;4.47;3.97;;;;;;;;;;5095904;28;20230;-76
2023/04/17 14:13:53;;;;;;;3.80;3.50;;;;;;;;;;5095427;28;20236;-76
2023/04/17 14:16:20;;;;;;;4.67;4.27;;;;;;;;;;5095494;28;20207;-77
2023/04/17 14:18:48;;;;;;;4.90;4.40;;;;;;;;;;5095588;28;20210;-77
2023/04/17 14:21:14;;;;;;;4.27;3.87;;;;;;;;;;5095764;28;20361;-76
2023/04/17 14:23:40;;;;;;;4.50;4.10;;;;;;;;;;5095204;28;20791;-77